createdAt,value
2022-12-29T00:01:24.803Z,3.15
2022-12-29T00:03:53.124Z,3.00
2022-12-29T00:06:23.361Z,3.00
2022-12-29T00:08:51.745Z,3.47
2022-12-29T00:11:21.967Z,4.65
2022-12-29T00:14:08.920Z,2.58
2022-12-29T00:16:39.044Z,3.22
2022-12-29T00:19:27.997Z,3.38
2022-12-29T00:22:15.488Z,3.65
2022-12-29T00:25:01.965Z,3.40
2022-12-29T00:27:48.785Z,4.07
2022-12-29T00:30:36.822Z,3.65
2022-12-29T00:33:28.930Z,4.78
2022-12-29T00:36:03.449Z,4.80
2022-12-29T00:38:52.157Z,3.90
2022-12-29T00:41:38.146Z,4.30
2022-12-29T00:44:11.287Z,4.18
2022-12-29T00:46:40.462Z,4.35
2022-12-29T00:49:27.903Z,5.45
2022-12-29T00:51:57.080Z,4.68
2022-12-29T00:54:27.147Z,3.53
2022-12-29T00:56:55.683Z,7.80
2022-12-29T00:59:27.625Z,5.78
2022-12-29T01:01:57.527Z,7.50
2022-12-29T01:04:28.526Z,5.07
2022-12-29T01:06:56.827Z,6.18
2022-12-29T01:09:44.228Z,5.00
2022-12-29T01:12:13.291Z,6.47
2022-12-29T01:14:42.582Z,8.23
2022-12-29T01:17:10.941Z,5.13
2022-12-29T01:19:39.668Z,4.25
2022-12-29T01:22:07.833Z,6.80
2022-12-29T01:24:37.428Z,7.03
2022-12-29T01:27:06.164Z,5.95
2022-12-29T01:29:35.831Z,6.28
2022-12-29T01:32:04.030Z,5.43
2022-12-29T01:34:32.332Z,5.15
2022-12-29T01:37:00.919Z,5.97
2022-12-29T01:39:29.162Z,6.38
2022-12-29T01:41:58.721Z,5.45
2022-12-29T01:44:53.437Z,5.45
2022-12-29T01:47:28.559Z,3.28
2022-12-29T01:49:59.909Z,3.28
2022-12-29T01:52:30.729Z,5.20
2022-12-29T01:55:00.324Z,3.63
2022-12-29T01:57:33.987Z,3.45
2022-12-29T02:00:06.022Z,4.65
2022-12-29T02:02:34.505Z,6.40
2022-12-29T02:05:08.062Z,7.45
2022-12-29T02:07:36.700Z,5.90
2022-12-29T02:10:05.295Z,5.18
2022-12-29T02:12:35.787Z,5.10
2022-12-29T02:15:05.869Z,3.20
2022-12-29T02:17:44.630Z,6.15
2022-12-29T02:20:48.863Z,4.00
2022-12-29T02:23:56.372Z,5.35
2022-12-29T02:26:51.847Z,10.98
2022-12-29T02:30:00.519Z,4.10
2022-12-29T02:32:38.619Z,5.05
2022-12-29T02:35:14.688Z,4.40
2022-12-29T02:37:47.884Z,9.10
2022-12-29T02:40:26.077Z,5.72
2022-12-29T02:43:04.065Z,5.15
2022-12-29T02:45:38.800Z,6.78
2022-12-29T02:48:17.298Z,8.00
2022-12-29T02:50:54.251Z,4.70
2022-12-29T02:53:44.946Z,7.07
2022-12-29T02:56:12.194Z,8.15
2022-12-29T02:58:41.083Z,4.63
2022-12-29T03:01:36.014Z,7.47
2022-12-29T03:04:29.291Z,8.93
2022-12-29T03:07:07.057Z,6.90
2022-12-29T03:09:44.092Z,4.55
2022-12-29T03:12:20.902Z,5.82
2022-12-29T03:15:16.104Z,6.25
2022-12-29T03:17:52.424Z,7.68
2022-12-29T03:20:27.636Z,5.75
2022-12-29T03:23:01.467Z,6.95
2022-12-29T03:25:33.214Z,8.77
2022-12-29T03:28:05.485Z,8.70
2022-12-29T03:30:36.473Z,6.57
2022-12-29T03:33:10.067Z,8.18
2022-12-29T03:35:43.432Z,6.90
2022-12-29T03:38:17.030Z,6.70
2022-12-29T03:40:50.468Z,7.65
2022-12-29T03:43:20.248Z,8.77
2022-12-29T03:45:48.642Z,8.10
2022-12-29T03:48:17.030Z,9.68
2022-12-29T03:50:46.946Z,6.38
2022-12-29T03:53:15.161Z,10.43
2022-12-29T03:55:43.915Z,11.05
2022-12-29T03:58:12.513Z,8.70
2022-12-29T04:00:41.025Z,7.38
2022-12-29T04:03:09.948Z,7.35
2022-12-29T04:05:38.371Z,8.20
2022-12-29T04:08:08.243Z,7.93
2022-12-29T04:10:37.208Z,7.75
2022-12-29T04:13:05.456Z,7.32
2022-12-29T04:15:33.826Z,8.02
2022-12-29T04:18:02.250Z,10.18
2022-12-29T04:20:47.990Z,6.78
2022-12-29T04:23:18.017Z,6.72
2022-12-29T04:25:48.417Z,8.48
2022-12-29T04:28:16.928Z,6.07
2022-12-29T04:30:47.694Z,7.65
2022-12-29T04:33:16.454Z,7.57
2022-12-29T04:35:47.565Z,8.23
2022-12-29T04:38:17.635Z,7.20
2022-12-29T04:40:47.426Z,9.75
2022-12-29T04:43:16.283Z,5.97
2022-12-29T04:45:47.098Z,6.90
2022-12-29T04:48:16.522Z,7.63
2022-12-29T04:50:45.709Z,6.40
2022-12-29T04:53:13.873Z,5.70
2022-12-29T04:55:43.579Z,5.07
2022-12-29T04:58:14.027Z,8.65
2022-12-29T05:00:46.134Z,5.75
2022-12-29T05:03:14.808Z,8.48
2022-12-29T05:05:43.729Z,11.45
2022-12-29T05:08:11.988Z,6.95
2022-12-29T05:10:42.424Z,6.60
2022-12-29T05:13:10.695Z,6.45
2022-12-29T05:15:39.108Z,7.88
2022-12-29T05:18:07.554Z,8.35
2022-12-29T05:20:35.931Z,8.07
2022-12-29T05:23:04.208Z,6.93
2022-12-29T05:25:32.623Z,6.35
2022-12-29T05:28:02.177Z,10.75
2022-12-29T05:30:30.435Z,8.57
2022-12-29T05:32:59.027Z,12.32
2022-12-29T05:35:27.354Z,9.00
2022-12-29T05:37:55.761Z,12.93
2022-12-29T05:40:24.135Z,8.25
2022-12-29T05:42:52.373Z,10.52
2022-12-29T05:45:22.020Z,9.13
2022-12-29T05:47:50.685Z,10.05
2022-12-29T05:50:18.997Z,10.30
2022-12-29T05:52:47.541Z,10.57
2022-12-29T05:55:15.853Z,13.30
2022-12-29T05:57:44.182Z,10.50
2022-12-29T06:00:13.808Z,12.80
2022-12-29T06:02:44.258Z,11.50
2022-12-29T06:05:13.164Z,11.57
2022-12-29T06:07:41.716Z,14.27
2022-12-29T06:10:10.545Z,10.60
2022-12-29T06:12:39.085Z,9.85
2022-12-29T06:15:08.917Z,12.38
2022-12-29T06:17:37.228Z,9.00
2022-12-29T06:20:08.747Z,12.15
2022-12-29T06:22:37.049Z,12.43
2022-12-29T06:25:06.659Z,16.92
2022-12-29T06:27:35.436Z,15.52
2022-12-29T06:30:03.949Z,11.05
2022-12-29T06:32:32.128Z,14.35
2022-12-29T06:35:00.622Z,13.32
2022-12-29T06:37:30.402Z,15.68
2022-12-29T06:39:58.754Z,12.15
2022-12-29T06:42:27.219Z,10.07
2022-12-29T06:44:55.444Z,11.18
2022-12-29T06:47:23.622Z,9.80
2022-12-29T06:49:52.123Z,10.40
2022-12-29T06:52:20.428Z,13.82
2022-12-29T06:54:50.164Z,10.48
2022-12-29T06:57:18.498Z,10.85
2022-12-29T06:59:46.889Z,12.48
2022-12-29T07:02:16.000Z,11.35
2022-12-29T07:04:44.940Z,13.32
2022-12-29T07:07:13.093Z,14.15
2022-12-29T07:09:41.833Z,18.58
2022-12-29T07:12:11.384Z,11.70
2022-12-29T07:14:43.204Z,10.00
2022-12-29T07:17:12.174Z,14.55
2022-12-29T07:19:40.365Z,13.20
2022-12-29T07:22:08.670Z,11.88
2022-12-29T07:24:37.018Z,14.02
2022-12-29T07:27:05.603Z,11.15
2022-12-29T07:29:35.434Z,11.60
2022-12-29T07:32:03.863Z,9.00
2022-12-29T07:34:32.098Z,15.40
2022-12-29T07:37:00.308Z,15.02
2022-12-29T07:39:28.615Z,13.18
2022-12-29T07:42:02.675Z,8.07
2022-12-29T07:44:34.400Z,15.27
2022-12-29T07:47:02.714Z,10.55
2022-12-29T07:49:30.938Z,10.05
2022-12-29T07:51:59.402Z,14.85
2022-12-29T07:54:27.649Z,17.00
2022-12-29T07:56:55.844Z,13.15
2022-12-29T07:59:24.564Z,13.10
2022-12-29T08:01:54.762Z,13.38
2022-12-29T08:04:23.193Z,14.48
2022-12-29T08:06:52.698Z,11.55
2022-12-29T08:09:24.489Z,13.00
2022-12-29T08:11:53.251Z,12.88
2022-12-29T08:14:21.550Z,13.27
2022-12-29T08:16:49.898Z,13.52
2022-12-29T08:19:19.786Z,14.98
2022-12-29T08:21:48.197Z,9.20
2022-12-29T08:24:16.710Z,11.80
2022-12-29T08:26:45.154Z,11.20
2022-12-29T08:29:13.407Z,11.35
2022-12-29T08:31:41.640Z,9.93
2022-12-29T08:34:10.128Z,14.93
2022-12-29T08:36:39.653Z,18.85
2022-12-29T08:39:08.047Z,15.38
2022-12-29T08:41:36.504Z,13.93
2022-12-29T08:44:04.821Z,16.38
2022-12-29T08:46:33.054Z,9.43
2022-12-29T08:49:01.809Z,11.95
2022-12-29T08:51:30.141Z,17.70
2022-12-29T08:53:59.963Z,15.45
2022-12-29T08:56:28.988Z,15.27
2022-12-29T08:58:57.459Z,17.30
2022-12-29T09:01:25.917Z,15.65
2022-12-29T09:06:44.859Z,14.45
2022-12-29T09:09:15.651Z,17.42
2022-12-29T09:11:44.654Z,15.45
2022-12-29T09:14:13.481Z,20.55
2022-12-29T09:16:59.712Z,19.35
2022-12-29T09:19:28.231Z,17.05
2022-12-29T09:21:56.582Z,18.80
2022-12-29T09:24:26.310Z,15.13
2022-12-29T09:26:55.085Z,13.57
2022-12-29T09:29:23.812Z,18.63
2022-12-29T09:31:52.406Z,16.63
2022-12-29T09:34:20.784Z,17.45
2022-12-29T09:36:49.426Z,11.25
2022-12-29T09:39:18.003Z,17.30
2022-12-29T09:41:55.332Z,15.07
2022-12-29T09:44:32.272Z,16.48
2022-12-29T09:47:02.828Z,17.17
2022-12-29T09:49:40.765Z,19.20
2022-12-29T09:52:17.959Z,20.88
2022-12-29T09:54:59.817Z,20.63
2022-12-29T09:57:36.592Z,15.52
2022-12-29T10:00:09.235Z,16.52
2022-12-29T10:02:42.084Z,16.80
2022-12-29T10:05:25.223Z,14.90
2022-12-29T10:08:02.519Z,20.60
2022-12-29T10:10:40.312Z,15.10
2022-12-29T10:13:30.543Z,17.10
2022-12-29T10:16:07.583Z,14.32
2022-12-29T10:18:55.778Z,15.88
2022-12-29T10:21:33.918Z,17.83
2022-12-29T10:24:06.966Z,12.75
2022-12-29T10:26:41.167Z,12.82
2022-12-29T10:29:18.523Z,14.35
2022-12-29T10:31:50.126Z,14.45
2022-12-29T10:34:23.688Z,12.50
2022-12-29T10:36:57.684Z,12.75
2022-12-29T10:39:32.715Z,12.15
2022-12-29T10:42:11.035Z,14.60
2022-12-29T10:44:40.721Z,16.77
2022-12-29T10:47:17.581Z,15.63
2022-12-29T10:49:48.985Z,18.73
2022-12-29T10:52:19.403Z,14.93
2022-12-29T10:54:52.490Z,13.98
2022-12-29T10:57:29.097Z,12.13
2022-12-29T11:00:00.312Z,11.32
2022-12-29T11:03:05.498Z,12.82
2022-12-29T11:05:38.638Z,15.05
2022-12-29T11:08:12.729Z,10.20
2022-12-29T11:10:42.294Z,8.93
2022-12-29T11:13:16.916Z,15.55
2022-12-29T11:15:48.238Z,13.07
2022-12-29T11:18:25.431Z,16.15
2022-12-29T11:21:00.284Z,17.42
2022-12-29T11:23:33.505Z,12.63
2022-12-29T11:26:18.283Z,15.15
2022-12-29T11:28:48.437Z,20.80
2022-12-29T11:31:23.977Z,15.68
2022-12-29T11:33:52.427Z,17.85
2022-12-29T11:36:24.354Z,11.25
2022-12-29T11:38:54.824Z,14.68
2022-12-29T11:41:26.029Z,14.23
2022-12-29T11:43:56.038Z,14.00
2022-12-29T11:46:29.247Z,13.70
2022-12-29T11:49:00.842Z,14.32
2022-12-29T11:51:32.508Z,15.32
2022-12-29T11:54:03.411Z,13.57
2022-12-29T11:56:41.419Z,13.73
2022-12-29T11:59:39.016Z,13.25
2022-12-29T12:02:44.520Z,8.30
2022-12-29T12:05:19.735Z,10.82
2022-12-29T12:07:51.550Z,15.38
2022-12-29T12:10:25.131Z,12.32
2022-12-29T12:13:00.836Z,14.75
2022-12-29T12:15:33.817Z,13.60
2022-12-29T12:18:10.862Z,13.65
2022-12-29T12:20:46.653Z,9.90
2022-12-29T12:23:30.964Z,15.93
2022-12-29T12:26:06.100Z,14.90
2022-12-29T12:28:45.421Z,17.08
2022-12-29T12:31:24.702Z,11.85
2022-12-29T12:33:59.773Z,12.30
2022-12-29T12:36:49.474Z,12.05
2022-12-29T12:39:27.889Z,11.10
2022-12-29T12:42:08.591Z,10.05
2022-12-29T12:44:47.631Z,12.20
2022-12-29T12:47:44.531Z,13.23
2022-12-29T12:50:38.600Z,10.90
2022-12-29T12:53:36.949Z,11.07
2022-12-29T12:56:32.225Z,13.98
2022-12-29T12:59:09.853Z,12.88
2022-12-29T13:01:49.031Z,10.35
2022-12-29T13:04:43.081Z,7.72
2022-12-29T13:07:22.900Z,11.50
2022-12-29T13:10:14.505Z,6.65
2022-12-29T13:12:53.352Z,9.80
2022-12-29T13:15:37.109Z,7.43
2022-12-29T13:18:12.460Z,9.43
2022-12-29T13:20:48.660Z,9.38
2022-12-29T13:23:26.856Z,7.95
2022-12-29T13:26:03.034Z,12.45
2022-12-29T13:28:37.991Z,7.30
2022-12-29T13:31:12.601Z,8.52
2022-12-29T13:33:50.940Z,9.80
2022-12-29T13:36:25.245Z,12.68
2022-12-29T13:39:04.491Z,13.23
2022-12-29T13:41:36.133Z,8.73
2022-12-29T13:44:07.568Z,6.03
2022-12-29T13:46:40.811Z,6.35
2022-12-29T13:49:14.584Z,5.13
2022-12-29T13:51:45.442Z,5.85
2022-12-29T13:54:26.834Z,2.85
2022-12-29T13:57:02.166Z,7.00
2022-12-29T13:59:44.136Z,4.45
2022-12-29T14:02:21.801Z,4.82
2022-12-29T14:05:02.175Z,6.25
2022-12-29T14:07:31.497Z,4.43
2022-12-29T14:10:01.424Z,4.80
2022-12-29T14:12:37.861Z,7.68
2022-12-29T14:15:09.682Z,7.80
2022-12-29T14:17:39.250Z,6.03
2022-12-29T14:20:18.786Z,9.00
2022-12-29T14:22:59.531Z,7.15
2022-12-29T14:25:59.160Z,11.15
2022-12-29T14:28:29.367Z,8.73
2022-12-29T14:30:58.741Z,9.00
2022-12-29T14:33:29.954Z,10.48
2022-12-29T14:35:59.518Z,8.77
2022-12-29T14:38:32.898Z,8.70
2022-12-29T14:41:32.450Z,8.35
2022-12-29T14:44:04.824Z,8.35
2022-12-29T14:46:58.146Z,9.25
2022-12-29T14:49:29.827Z,10.67
2022-12-29T14:52:08.522Z,11.10
2022-12-29T14:54:53.723Z,12.45
2022-12-29T14:57:34.243Z,11.50
2022-12-29T15:00:10.998Z,8.40
2022-12-29T15:02:44.817Z,8.93
2022-12-29T15:05:32.015Z,9.38
2022-12-29T15:08:01.448Z,11.02
2022-12-29T15:10:38.521Z,11.07
2022-12-29T15:13:17.484Z,11.48
2022-12-29T15:15:46.320Z,13.65
2022-12-29T15:18:25.819Z,10.35
2022-12-29T15:20:57.522Z,10.75
2022-12-29T15:23:26.479Z,11.07
2022-12-29T15:25:58.898Z,10.07
2022-12-29T15:28:29.697Z,12.50
2022-12-29T15:31:03.539Z,11.27
2022-12-29T15:33:32.107Z,7.07
2022-12-29T15:36:06.016Z,10.55
2022-12-29T15:38:40.185Z,13.23
2022-12-29T15:41:25.592Z,9.15
2022-12-29T15:44:05.972Z,11.68
2022-12-29T15:46:36.058Z,10.75
2022-12-29T15:49:08.673Z,9.57
2022-12-29T15:51:41.781Z,10.35
2022-12-29T15:54:18.552Z,10.57
2022-12-29T15:56:47.391Z,11.88
2022-12-29T15:59:28.095Z,14.75
2022-12-29T16:01:57.438Z,15.07
2022-12-29T16:04:27.722Z,15.70
2022-12-29T16:07:01.927Z,14.05
2022-12-29T16:09:36.073Z,19.52
2022-12-29T16:12:07.594Z,16.27
2022-12-29T16:14:44.079Z,13.30
2022-12-29T16:17:20.335Z,14.73
2022-12-29T16:19:53.104Z,16.52
2022-12-29T16:22:28.679Z,18.00
2022-12-29T16:25:04.448Z,16.02
2022-12-29T16:27:39.776Z,20.95
2022-12-29T16:30:24.327Z,15.25
2022-12-29T16:32:57.879Z,17.58
2022-12-29T16:35:28.902Z,15.95
2022-12-29T16:38:15.557Z,20.58
2022-12-29T16:40:53.123Z,18.92
2022-12-29T16:43:24.335Z,17.90
2022-12-29T16:46:23.565Z,19.60
2022-12-29T16:48:54.745Z,19.00
2022-12-29T16:51:32.114Z,18.35
2022-12-29T16:54:01.256Z,20.15
2022-12-29T16:56:32.985Z,11.93
2022-12-29T16:59:05.800Z,17.45
2022-12-29T17:01:38.172Z,15.57
2022-12-29T17:04:10.138Z,20.77
2022-12-29T17:06:38.859Z,21.55
2022-12-29T17:09:19.552Z,18.13
2022-12-29T17:12:06.876Z,19.02
2022-12-29T17:14:44.111Z,17.50
2022-12-29T17:17:20.728Z,18.00
2022-12-29T17:19:52.727Z,22.05
2022-12-29T17:22:26.297Z,16.60
2022-12-29T17:24:55.589Z,14.82
2022-12-29T17:27:30.769Z,18.17
2022-12-29T17:30:02.276Z,19.27
2022-12-29T17:32:32.464Z,19.73
2022-12-29T17:35:00.714Z,19.20
2022-12-29T17:37:32.722Z,21.85
2022-12-29T17:40:01.030Z,20.17
2022-12-29T17:42:29.301Z,15.40
2022-12-29T17:44:57.859Z,19.08
2022-12-29T17:47:26.141Z,12.82
2022-12-29T17:49:55.737Z,17.85
2022-12-29T17:52:24.077Z,23.48
2022-12-29T17:54:55.173Z,17.88
2022-12-29T17:57:23.412Z,22.63
2022-12-29T17:59:51.670Z,17.73
2022-12-29T18:02:26.692Z,11.35
2022-12-29T18:04:57.490Z,19.05
2022-12-29T18:07:33.867Z,16.27
2022-12-29T18:10:04.786Z,16.02
2022-12-29T18:12:38.454Z,19.55
2022-12-29T18:17:35.378Z,21.85
2022-12-29T18:20:05.423Z,15.13
2022-12-29T18:22:34.395Z,13.75
2022-12-29T18:25:03.122Z,18.70
2022-12-29T18:27:31.761Z,16.13
2022-12-29T18:30:00.134Z,15.55
2022-12-29T18:32:29.724Z,12.27
2022-12-29T18:34:58.136Z,12.65
2022-12-29T18:37:28.051Z,12.52
2022-12-29T18:39:57.358Z,13.18
2022-12-29T18:42:28.606Z,14.07
2022-12-29T18:44:57.085Z,12.32
2022-12-29T18:47:25.358Z,10.88
2022-12-29T18:49:54.536Z,13.20
2022-12-29T18:52:22.840Z,12.70
2022-12-29T18:54:52.541Z,9.77
2022-12-29T18:57:21.240Z,16.63
2022-12-29T18:59:49.643Z,14.25
2022-12-29T19:02:18.634Z,15.98
2022-12-29T19:04:52.740Z,13.43
2022-12-29T19:07:21.332Z,16.08
2022-12-29T19:09:51.290Z,12.88
2022-12-29T19:12:25.063Z,14.18
2022-12-29T19:14:56.469Z,14.10
2022-12-29T19:17:24.710Z,18.20
2022-12-29T19:19:54.014Z,14.82
2022-12-29T19:22:22.329Z,18.38
2022-12-29T19:24:58.037Z,13.52
2022-12-29T19:27:28.095Z,14.05
2022-12-29T19:29:56.525Z,13.98
2022-12-29T19:32:24.712Z,14.10
2022-12-29T19:34:53.213Z,20.60
2022-12-29T19:37:22.329Z,15.95
2022-12-29T19:39:53.277Z,18.30
2022-12-29T19:42:21.957Z,17.90
2022-12-29T19:44:50.276Z,20.63
2022-12-29T19:47:20.855Z,17.38
2022-12-29T19:49:49.499Z,20.92
2022-12-29T19:52:17.701Z,17.77
2022-12-29T19:54:45.948Z,15.40
2022-12-29T19:57:15.580Z,14.10
2022-12-29T19:59:43.860Z,18.38
2022-12-29T20:02:20.627Z,19.52
2022-12-29T20:04:49.269Z,17.58
2022-12-29T20:07:18.567Z,18.33
2022-12-29T20:09:47.616Z,23.95
2022-12-29T20:12:21.777Z,15.52
2022-12-29T20:14:52.733Z,11.50
2022-12-29T20:17:32.693Z,16.08
2022-12-29T20:20:10.216Z,14.48
2022-12-29T20:22:38.434Z,15.50
2022-12-29T20:25:43.197Z,15.82
2022-12-29T20:27:57.227Z,16.65
2022-12-29T20:30:25.909Z,12.95
2022-12-29T20:32:54.188Z,20.00
2022-12-29T20:35:22.675Z,14.80
2022-12-29T20:37:51.029Z,17.33
2022-12-29T20:40:19.498Z,16.60
2022-12-29T20:42:47.887Z,18.90
2022-12-29T20:45:17.566Z,18.20
2022-12-29T20:47:45.837Z,13.13
2022-12-29T20:50:14.425Z,18.77
2022-12-29T20:52:42.671Z,14.55
2022-12-29T20:55:11.137Z,18.02
2022-12-29T20:58:21.542Z,19.17
2022-12-29T21:00:30.609Z,15.32
2022-12-29T21:02:59.502Z,16.77
2022-12-29T21:05:28.550Z,19.10
2022-12-29T21:07:59.653Z,13.15
2022-12-29T21:10:28.180Z,10.50
2022-12-29T21:12:56.477Z,13.65
2022-12-29T21:15:24.900Z,15.52
2022-12-29T21:17:54.722Z,16.45
2022-12-29T21:20:30.259Z,12.20
2022-12-29T21:22:59.816Z,10.93
2022-12-29T21:25:37.371Z,11.13
2022-12-29T21:28:06.332Z,8.77
2022-12-29T21:30:35.172Z,13.38
2022-12-29T21:33:05.146Z,11.27
2022-12-29T21:35:36.355Z,7.75
2022-12-29T21:38:05.248Z,12.13
2022-12-29T21:40:35.880Z,12.63
2022-12-29T21:43:04.423Z,11.63
2022-12-29T21:45:34.216Z,12.43
2022-12-29T21:48:25.065Z,11.85
2022-12-29T21:51:12.857Z,15.13
2022-12-29T21:53:43.582Z,15.80
2022-12-29T21:56:14.701Z,11.25
2022-12-29T21:59:03.063Z,22.08
2022-12-29T22:01:50.911Z,13.13
2022-12-29T22:04:40.697Z,14.30
2022-12-29T22:07:28.575Z,17.98
2022-12-29T22:10:15.118Z,14.77
2022-12-29T22:13:03.205Z,15.50
2022-12-29T22:15:34.309Z,15.80
2022-12-29T22:18:04.023Z,16.77
2022-12-29T22:20:36.438Z,19.08
2022-12-29T22:23:05.492Z,14.82
2022-12-29T22:25:35.095Z,20.10
2022-12-29T22:28:03.315Z,14.38
2022-12-29T22:30:32.724Z,14.07
2022-12-29T22:33:02.304Z,14.52
2022-12-29T22:35:30.872Z,14.77
2022-12-29T22:38:00.602Z,18.80
2022-12-29T22:40:29.146Z,17.42
2022-12-29T22:42:57.433Z,18.88
2022-12-29T22:45:25.811Z,21.88
2022-12-29T22:47:54.088Z,20.23
2022-12-29T22:50:22.413Z,22.08
2022-12-29T22:52:51.674Z,19.88
2022-12-29T22:55:21.482Z,17.83
2022-12-29T22:57:49.698Z,19.65
2022-12-29T23:00:18.452Z,22.20
2022-12-29T23:02:46.717Z,15.38
2022-12-29T23:05:15.194Z,14.13
2022-12-29T23:07:43.687Z,18.23
2022-12-29T23:10:12.093Z,18.42
2022-12-29T23:12:41.663Z,14.57
2022-12-29T23:15:11.004Z,20.00
2022-12-29T23:17:39.223Z,17.23
2022-12-29T23:20:08.995Z,17.67
2022-12-29T23:22:37.393Z,14.52
2022-12-29T23:25:06.261Z,17.90
2022-12-29T23:27:34.610Z,17.45
2022-12-29T23:30:04.734Z,24.02
2022-12-29T23:32:32.961Z,15.07
2022-12-29T23:35:01.307Z,17.52
2022-12-29T23:37:30.272Z,13.88
2022-12-29T23:39:58.448Z,15.57
2022-12-29T23:42:26.646Z,22.33
2022-12-29T23:44:54.914Z,15.65
2022-12-29T23:47:24.518Z,17.60
2022-12-29T23:49:52.723Z,14.05
2022-12-29T23:52:21.064Z,15.50
2022-12-29T23:54:49.724Z,21.40
2022-12-29T23:57:18.037Z,16.65
2022-12-29T23:59:46.498Z,14.82
